LJI weather

Nueva Granada Airport
La Jagua De Ibirico, César Department, Colombia

Public forecast

Using degrees Celsius for public forecast. Weather courtesy of forecast.io.

METAR (pilot weather report)

Closest report is Alfonso López Pumarejo Airport, 51.9 nm (96.2 km) N. Retrieved 2019/03/26 03:00 UTC (41 minutes ago):

SKVP 260300Z 06013KT 9999 FEW020 29/18 A2988

TAF (pilot weather forecast)

Forecast is more than 12 hours old.

Closest forecast is Camilo Daza International Airport, 111.6 nm (206.6 km) SSE. Retrieved 2019/03/24 12:00 UTC (2 days ago):

TAF SKCC 241100Z 2412/2512 VRB02KT 9000 SCT020 SCT090 TEMPO 2412/2413 8000 VCFG -DZ SCT012 BECMG 2413/2415 36012KT TEMPO 2419/2422 8000 RA SCT020TCU TEMPO 2500/2502 7000 VCFG -DZ SCT015 BECMG 2503/2505 VRB02KT TEMPO 2510/2512 7000 VCFG SCT013 TX31/2419Z TN22/2511Z